Terminal Aerodrome Forecast
Issued by NWS

Home | Current Version | Previous Version | Text Only | Print | Product List | Glossary On
Versions: 1 2 3 4 5 6 7 8 9 10 11 12 13 14 15 16 17 18 19 20 21 22 23 24 25 26 27 28 29 30
248
FTUS43 KDTX 220304 AAB
TAFDET
TAF AMD
KDET 220304Z 2203/2224 16004KT 3SM BR FEW003 SCT090
      TEMPO 2203/2204 3/4SM BR SCT003
     FM220400 13003KT 1/2SM FG BKN003
     FM220500 VRB03KT 1/4SM FG VV002
     FM221600 07005KT 1SM BR OVC003
     FM221800 07005KT P6SM SCT010 BKN100
     FM222000 07005KT P6SM BKN100=

USA.gov is the U.S. government's official web portal to all federal, state and local government web resources and services.